Time;durP1;ratioP1;P1;durP2;ratioP2;P2;SDS_P1;SDS_P2;PMS_P1;PMS_P2;Temp;Humidity;BMP_temperature;BMP_pressure;BME280_temperature;BME280_humidity;BME280_pressure;Samples;Min_cycle;Max_cycle;Signal;HPM_P1;HPM_P2
2023/01/30 00:00:52;;;;;;;41.10;31.27;;;6.50;99.90;;;;;;7378468;19;20030;-83
2023/01/30 00:03:19;;;;;;;38.88;29.17;;;6.50;99.90;;;;;;7380442;19;20450;-83
2023/01/30 00:05:47;;;;;;;44.47;30.23;;;6.50;99.90;;;;;;7377394;19;20051;-83
2023/01/30 00:08:14;;;;;;;40.05;29.77;;;6.50;99.90;;;;;;7380363;19;20010;-83
2023/01/30 00:10:40;;;;;;;41.13;29.33;;;6.50;99.90;;;;;;7376774;19;20116;-83
2023/01/30 00:13:07;;;;;;;41.70;30.00;;;6.50;99.90;;;;;;7372146;19;20025;-83
2023/01/30 00:15:34;;;;;;;42.00;28.88;;;6.60;99.90;;;;;;7378663;19;20094;-83
2023/01/30 00:18:00;;;;;;;38.50;28.60;;;6.60;99.90;;;;;;7377854;19;20437;-83
2023/01/30 00:20:27;;;;;;;36.35;26.95;;;6.60;99.90;;;;;;7376048;19;20023;-83
2023/01/30 00:22:53;;;;;;;38.65;30.48;;;6.70;99.90;;;;;;7376789;19;20015;-83
2023/01/30 00:25:22;;;;;;;37.63;29.40;;;6.80;99.90;;;;;;7375878;19;20018;-84
2023/01/30 00:27:51;;;;;;;38.55;26.52;;;6.80;99.90;;;;;;7369130;19;20022;-84
2023/01/30 00:30:18;;;;;;;31.85;26.05;;;6.80;99.90;;;;;;7371482;19;20447;-84
2023/01/30 00:32:45;;;;;;;35.28;27.27;;;6.80;99.90;;;;;;7369579;19;20018;-84
2023/01/30 00:35:11;;;;;;;34.38;25.45;;;6.80;99.90;;;;;;7368893;19;20492;-84
2023/01/30 00:37:38;;;;;;;35.08;26.20;;;6.80;99.90;;;;;;7370664;19;20129;-84
2023/01/30 00:40:04;;;;;;;37.53;26.45;;;6.80;99.90;;;;;;7371528;19;20568;-84
2023/01/30 00:48:01;;;;;;;34.42;25.92;;;6.90;99.90;;;;;;7367495;19;20073;-84
2023/01/30 00:50:41;;;;;;;32.63;26.42;;;6.90;99.90;;;;;;7368685;19;20018;-85
2023/01/30 00:53:12;;;;;;;34.53;27.40;;;6.90;99.90;;;;;;7366904;19;20528;-84
2023/01/30 00:55:39;;;;;;;37.55;26.35;;;6.90;99.90;;;;;;7371616;19;20010;-84
2023/01/30 00:58:06;;;;;;;42.50;26.88;;;6.80;99.90;;;;;;7369514;19;20501;-84
2023/01/30 01:00:32;;;;;;;36.25;26.95;;;6.80;99.90;;;;;;7371772;19;20358;-84
2023/01/30 01:02:59;;;;;;;32.83;25.55;;;6.90;99.90;;;;;;7367707;19;20015;-84
2023/01/30 01:05:25;;;;;;;31.90;24.95;;;6.80;99.90;;;;;;7371170;19;20569;-84
2023/01/30 01:07:54;;;;;;;35.40;25.92;;;6.90;99.90;;;;;;7371763;19;20621;-84
2023/01/30 01:10:21;;;;;;;35.08;24.98;;;6.80;99.90;;;;;;7369894;19;20025;-84
2023/01/30 01:12:51;;;;;;;37.15;25.52;;;6.80;99.90;;;;;;7370638;19;20014;-84
2023/01/30 01:15:18;;;;;;;41.60;27.02;;;6.80;99.90;;;;;;7366914;19;20019;-84
2023/01/30 01:17:47;;;;;;;32.13;26.08;;;6.80;99.90;;;;;;7361287;19;20482;-84
2023/01/30 01:20:15;;;;;;;39.72;27.92;;;6.80;99.90;;;;;;7362030;19;20035;-83
2023/01/30 01:22:41;;;;;;;40.15;27.08;;;6.70;99.90;;;;;;7362413;19;20388;-84
2023/01/30 01:25:09;;;;;;;37.28;25.88;;;6.70;99.90;;;;;;7365712;19;20438;-84
2023/01/30 01:27:36;;;;;;;34.35;23.88;;;6.70;99.90;;;;;;7372851;19;20401;-84
2023/01/30 01:30:04;;;;;;;33.53;21.58;;;6.70;99.90;;;;;;7365882;19;20039;-83
2023/01/30 01:32:31;;;;;;;38.17;23.38;;;6.70;99.90;;;;;;7373956;19;20010;-84
2023/01/30 01:34:57;;;;;;;37.97;21.98;;;6.70;99.90;;;;;;7375074;19;20018;-83
2023/01/30 01:37:24;;;;;;;38.55;22.52;;;6.70;99.90;;;;;;7377466;19;20097;-84
2023/01/30 01:42:37;;;;;;;24.98;17.40;;;6.70;99.90;;;;;;7376903;19;20026;-84
2023/01/30 01:45:17;;;;;;;26.10;17.90;;;6.80;99.90;;;;;;7372930;19;20033;-85
2023/01/30 01:47:53;;;;;;;30.23;15.90;;;6.80;99.90;;;;;;7378236;19;20022;-85
2023/01/30 01:50:44;;;;;;;21.23;15.43;;;6.80;99.90;;;;;;7374439;19;20065;-84
2023/01/30 01:53:13;;;;;;;25.25;16.17;;;6.80;99.90;;;;;;7369430;19;21286;-85
2023/01/30 01:55:43;;;;;;;24.63;13.98;;;6.80;99.90;;;;;;7371363;19;20386;-85
2023/01/30 01:58:19;;;;;;;20.00;13.32;;;6.90;99.90;;;;;;7371801;19;20105;-85
2023/01/30 02:00:47;;;;;;;19.83;12.75;;;6.80;99.90;;;;;;7373524;19;20014;-85
2023/01/30 02:03:22;;;;;;;18.58;11.40;;;6.90;99.90;;;;;;7371600;19;20089;-86
2023/01/30 02:05:51;;;;;;;19.60;11.68;;;6.90;99.90;;;;;;7369566;19;20486;-85
2023/01/30 02:08:44;;;;;;;20.10;11.35;;;6.90;99.90;;;;;;7370264;19;20032;-84
2023/01/30 02:12:03;;;;;;;16.35;10.05;;;6.90;99.90;;;;;;7369575;19;20018;-84
2023/01/30 02:14:33;;;;;;;17.40;10.18;;;6.90;99.90;;;;;;7380642;19;20070;-85
2023/01/30 02:16:59;;;;;;;15.93;9.73;;;6.90;99.90;;;;;;7379231;19;20465;-85
2023/01/30 02:19:38;;;;;;;13.90;8.70;;;6.90;99.90;;;;;;7376975;19;20006;-84
2023/01/30 02:22:41;;;;;;;15.18;8.00;;;6.90;99.90;;;;;;7373056;19;20473;-85
2023/01/30 02:25:44;;;;;;;16.25;8.07;;;7.00;99.90;;;;;;7374261;19;20035;-84
2023/01/30 02:28:34;;;;;;;17.08;7.55;;;7.00;99.90;;;;;;7372723;19;20113;-84
2023/01/30 02:31:39;;;;;;;14.63;8.05;;;7.00;99.90;;;;;;7375401;19;20029;-86
2023/01/30 02:34:29;;;;;;;13.40;7.10;;;7.00;99.90;;;;;;7378211;19;20026;-86
2023/01/30 02:37:31;;;;;;;10.82;6.30;;;7.00;99.90;;;;;;7392003;19;20368;-86
2023/01/30 02:40:17;;;;;;;11.60;6.10;;;7.00;99.90;;;;;;7386966;19;20049;-85
2023/01/30 02:43:01;;;;;;;11.90;7.20;;;7.00;99.90;;;;;;7384277;19;20014;-84
2023/01/30 02:45:30;;;;;;;15.43;6.88;;;7.10;99.90;;;;;;7377772;19;20043;-84
2023/01/30 02:48:04;;;;;;;12.40;7.30;;;7.00;99.90;;;;;;7376241;19;20364;-84
2023/01/30 02:50:36;;;;;;;21.60;7.25;;;7.00;99.90;;;;;;7377489;19;20521;-84
2023/01/30 02:53:05;;;;;;;15.60;7.38;;;7.10;99.90;;;;;;7374821;19;20428;-84
2023/01/30 02:55:32;;;;;;;15.45;7.20;;;7.10;99.90;;;;;;7376521;19;20010;-84
2023/01/30 02:58:00;;;;;;;12.88;6.45;;;7.10;99.90;;;;;;7379053;19;20026;-84
2023/01/30 03:00:41;;;;;;;17.08;7.25;;;7.10;99.90;;;;;;7376109;19;20407;-84
2023/01/30 03:03:49;;;;;;;16.15;7.60;;;7.10;99.90;;;;;;7375041;19;20090;-83
2023/01/30 03:06:18;;;;;;;20.08;7.20;;;7.10;99.90;;;;;;7374350;19;20106;-83
2023/01/30 03:08:57;;;;;;;15.80;7.57;;;7.10;99.90;;;;;;7375390;19;20101;-84
2023/01/30 03:11:30;;;;;;;16.40;7.68;;;7.20;99.90;;;;;;7375481;19;20560;-84
2023/01/30 03:14:12;;;;;;;18.27;7.85;;;7.10;99.90;;;;;;7374825;19;20026;-84
2023/01/30 03:16:40;;;;;;;17.65;6.90;;;7.20;99.90;;;;;;7376549;19;20035;-83
2023/01/30 03:19:11;;;;;;;20.27;8.20;;;7.20;99.90;;;;;;7371945;19;20018;-84
2023/01/30 03:21:43;;;;;;;21.08;7.65;;;7.30;99.90;;;;;;7373959;19;20019;-84
2023/01/30 03:24:11;;;;;;;18.58;7.70;;;7.30;99.90;;;;;;7376106;19;20022;-84
2023/01/30 03:26:58;;;;;;;18.55;7.55;;;7.20;99.90;;;;;;7372633;19;20021;-84
2023/01/30 03:29:24;;;;;;;20.70;8.25;;;7.20;99.90;;;;;;7374002;19;20018;-83
2023/01/30 03:31:50;;;;;;;25.27;7.25;;;7.30;99.90;;;;;;7373950;19;20065;-84
2023/01/30 03:34:17;;;;;;;16.10;6.82;;;7.20;99.90;;;;;;7375215;19;20526;-84
2023/01/30 03:36:43;;;;;;;18.42;7.15;;;7.30;99.90;;;;;;7371915;19;20018;-84
2023/01/30 03:39:13;;;;;;;21.17;7.07;;;7.30;99.90;;;;;;7372593;19;20022;-84
2023/01/30 03:41:41;;;;;;;16.20;6.28;;;7.30;99.90;;;;;;7371316;19;20014;-84
2023/01/30 03:44:07;;;;;;;20.38;6.82;;;7.30;99.90;;;;;;7369736;19;20542;-83
2023/01/30 03:46:33;;;;;;;21.38;6.93;;;7.30;99.90;;;;;;7365352;19;20511;-84
2023/01/30 03:48:59;;;;;;;21.35;6.65;;;7.30;99.90;;;;;;7367666;19;20042;-84
2023/01/30 03:51:26;;;;;;;19.95;6.18;;;7.30;99.90;;;;;;7370201;19;20039;-84
2023/01/30 03:53:52;;;;;;;20.60;5.78;;;7.30;99.90;;;;;;7371511;19;20032;-83
2023/01/30 03:56:18;;;;;;;19.58;6.47;;;7.30;99.90;;;;;;7371673;19;20041;-84
2023/01/30 03:58:45;;;;;;;22.10;6.50;;;7.30;99.90;;;;;;7371861;19;20558;-84
2023/01/30 04:01:17;;;;;;;20.45;5.80;;;7.20;99.90;;;;;;7372783;19;20047;-84
2023/01/30 04:03:43;;;;;;;17.50;5.60;;;7.20;99.90;;;;;;7373783;19;20545;-84
2023/01/30 04:06:09;;;;;;;18.10;5.47;;;7.30;99.90;;;;;;7371905;19;20023;-84
2023/01/30 04:08:37;;;;;;;20.83;5.65;;;7.20;99.90;;;;;;7371618;19;20026;-84
2023/01/30 04:11:05;;;;;;;22.58;6.18;;;7.20;99.90;;;;;;7371620;19;20019;-84
2023/01/30 04:13:31;;;;;;;26.33;6.60;;;7.30;99.90;;;;;;7373348;19;20042;-84
2023/01/30 04:16:28;;;;;;;19.02;6.40;;;7.30;99.90;;;;;;7372578;19;20022;-83
2023/01/30 04:19:17;;;;;;;21.77;6.40;;;7.30;99.90;;;;;;7369007;19;20018;-84
2023/01/30 04:21:47;;;;;;;18.48;6.28;;;7.30;99.90;;;;;;7373601;19;20022;-84
2023/01/30 04:24:13;;;;;;;21.13;5.75;;;7.30;99.90;;;;;;7369247;19;20022;-84
2023/01/30 04:26:41;;;;;;;19.48;5.82;;;7.30;99.90;;;;;;7370698;19;20376;-84
2023/01/30 04:29:07;;;;;;;15.73;5.50;;;7.20;99.90;;;;;;7372261;19;20006;-84
2023/01/30 04:31:35;;;;;;;20.52;5.53;;;7.20;99.90;;;;;;7371044;19;20018;-84
2023/01/30 04:34:34;;;;;;;20.45;5.70;;;7.10;99.90;;;;;;7368137;19;20481;-84
2023/01/30 04:37:01;;;;;;;25.27;5.93;;;7.10;99.90;;;;;;7372422;19;20014;-84
2023/01/30 04:39:28;;;;;;;23.70;6.07;;;7.00;99.90;;;;;;7373090;19;20022;-84
2023/01/30 04:41:57;;;;;;;23.05;5.45;;;7.10;99.90;;;;;;7371964;19;20018;-84
2023/01/30 04:44:24;;;;;;;20.67;5.35;;;7.00;99.90;;;;;;7372396;19;20014;-84
2023/01/30 04:47:11;;;;;;;28.15;6.55;;;7.00;99.90;;;;;;7373166;19;20448;-84
2023/01/30 04:49:37;;;;;;;21.45;5.80;;;6.90;99.90;;;;;;7368956;19;20018;-84
2023/01/30 04:52:05;;;;;;;21.92;5.15;;;6.90;99.90;;;;;;7368872;19;20482;-84
2023/01/30 04:54:32;;;;;;;18.25;5.57;;;6.80;99.90;;;;;;7370160;19;20483;-84
2023/01/30 04:56:58;;;;;;;20.65;5.68;;;6.80;99.90;;;;;;7371536;19;20615;-84
2023/01/30 04:59:24;;;;;;;22.95;5.50;;;6.90;99.90;;;;;;7375229;19;20019;-84
2023/01/30 05:01:51;;;;;;;23.88;5.55;;;6.90;99.90;;;;;;7378657;19;20018;-84
2023/01/30 05:04:19;;;;;;;15.70;5.05;;;6.80;99.90;;;;;;7381237;19;20018;-83
2023/01/30 05:06:45;;;;;;;17.35;4.47;;;6.80;99.90;;;;;;7382032;19;20019;-83
2023/01/30 05:09:12;;;;;;;20.30;4.72;;;6.90;99.90;;;;;;7386937;19;20070;-83
2023/01/30 05:11:39;;;;;;;25.23;5.20;;;6.80;99.90;;;;;;7383898;19;20036;-83
2023/01/30 05:14:05;;;;;;;21.80;5.38;;;6.80;99.90;;;;;;7385545;19;20373;-83
2023/01/30 05:16:31;;;;;;;20.67;5.10;;;6.80;99.90;;;;;;7385615;19;20014;-83
2023/01/30 05:18:58;;;;;;;20.30;5.28;;;6.70;99.90;;;;;;7384572;19;20066;-83
2023/01/30 05:21:28;;;;;;;20.30;5.90;;;6.60;99.90;;;;;;7384250;19;20060;-83
2023/01/30 05:23:56;;;;;;;20.77;5.63;;;6.60;99.90;;;;;;7383300;19;20579;-83
2023/01/30 05:26:23;;;;;;;23.48;5.40;;;6.60;99.90;;;;;;7380715;19;20046;-83
2023/01/30 05:28:51;;;;;;;19.67;4.88;;;6.60;99.90;;;;;;7378962;19;20478;-83
2023/01/30 05:31:18;;;;;;;21.35;5.30;;;6.50;99.90;;;;;;7381329;19;20442;-83
2023/01/30 05:33:47;;;;;;;23.65;5.85;;;6.50;99.90;;;;;;7385790;19;20010;-83
2023/01/30 05:36:16;;;;;;;27.25;5.22;;;6.50;99.90;;;;;;7380499;19;20112;-83
2023/01/30 05:38:43;;;;;;;19.80;4.43;;;6.50;99.90;;;;;;7384136;19;20028;-83
2023/01/30 05:41:15;;;;;;;21.27;4.18;;;6.50;99.90;;;;;;7378647;19;20374;-83
2023/01/30 05:43:42;;;;;;;23.00;4.43;;;6.50;99.90;;;;;;7380976;19;20015;-83
2023/01/30 05:46:12;;;;;;;21.00;5.28;;;6.50;99.90;;;;;;7380849;19;20029;-83
2023/01/30 05:48:39;;;;;;;22.80;5.13;;;6.40;99.90;;;;;;7381895;19;20034;-83
2023/01/30 05:51:06;;;;;;;20.70;4.60;;;6.30;99.90;;;;;;7374196;19;20018;-83
2023/01/30 05:53:36;;;;;;;17.77;4.32;;;6.30;99.90;;;;;;7369220;19;20022;-84
2023/01/30 05:56:04;;;;;;;29.85;5.18;;;6.20;99.90;;;;;;7366866;19;20026;-83
2023/01/30 05:58:32;;;;;;;22.23;4.72;;;6.20;99.90;;;;;;7366303;19;20604;-84
2023/01/30 06:01:03;;;;;;;25.85;5.70;;;6.10;99.90;;;;;;7369049;19;20026;-84
2023/01/30 06:03:29;;;;;;;25.85;4.90;;;6.10;99.90;;;;;;7373670;19;20022;-84
2023/01/30 06:05:55;;;;;;;25.80;4.38;;;6.00;99.90;;;;;;7374025;19;20026;-83
2023/01/30 06:08:22;;;;;;;23.15;5.10;;;5.90;99.90;;;;;;7374514;19;20015;-84
2023/01/30 06:10:51;;;;;;;19.52;4.97;;;5.90;99.90;;;;;;7372705;19;20026;-84
2023/01/30 06:13:18;;;;;;;22.63;4.60;;;5.90;99.90;;;;;;7372171;19;20014;-84
2023/01/30 06:15:45;;;;;;;40.58;16.08;;;5.90;99.90;;;;;;7384342;19;20015;-87
2023/01/30 06:18:12;;;;;;;19.27;4.88;;;6.00;99.90;;;;;;7385199;19;20022;-88
2023/01/30 06:20:38;;;;;;;21.85;5.45;;;6.00;99.90;;;;;;7375614;19;20470;-83
2023/01/30 06:23:04;;;;;;;24.27;4.78;;;6.00;99.90;;;;;;7373089;19;20018;-84
2023/01/30 06:25:31;;;;;;;23.33;4.30;;;5.90;99.90;;;;;;7373911;19;21636;-83
2023/01/30 06:27:57;;;;;;;20.80;4.80;;;5.80;99.90;;;;;;7374262;19;20482;-84
2023/01/30 06:30:24;;;;;;;21.67;5.00;;;5.80;99.90;;;;;;7367287;19;20030;-83
2023/01/30 06:32:51;;;;;;;25.42;5.38;;;5.90;99.90;;;;;;7371304;19;20023;-83
2023/01/30 06:35:17;;;;;;;22.38;5.45;;;5.80;99.90;;;;;;7371923;19;20015;-82
2023/01/30 06:37:45;;;;;;;24.08;4.30;;;5.90;99.90;;;;;;7374536;19;20346;-82
2023/01/30 06:40:12;;;;;;;31.20;5.47;;;5.90;99.90;;;;;;7371039;19;20366;-82
2023/01/30 06:42:43;;;;;;;26.75;5.43;;;6.00;99.90;;;;;;7373800;19;20019;-82
2023/01/30 06:45:12;;;;;;;26.42;4.68;;;6.00;99.90;;;;;;7375096;19;20441;-83
2023/01/30 06:47:53;;;;;;;24.25;4.68;;;6.00;99.90;;;;;;7380822;19;20006;-88
2023/01/30 06:50:22;;;;;;;22.27;5.03;;;6.10;99.90;;;;;;7385055;19;20161;-84
2023/01/30 06:52:50;;;;;;;57.00;29.90;;;6.10;99.90;;;;;;7381056;19;20474;-86
2023/01/30 06:55:20;;;;;;;20.33;4.43;;;6.20;99.90;;;;;;7374180;19;20018;-82
2023/01/30 06:57:47;;;;;;;22.40;4.57;;;6.20;99.90;;;;;;7377243;19;20039;-84
2023/01/30 07:00:17;;;;;;;21.75;4.20;;;6.10;99.90;;;;;;7377606;19;20569;-81
2023/01/30 07:02:45;;;;;;;19.80;4.20;;;6.20;99.90;;;;;;7376607;19;20015;-82
2023/01/30 07:05:12;;;;;;;20.92;4.15;;;6.10;99.90;;;;;;7376946;19;20011;-80
2023/01/30 07:07:38;;;;;;;20.92;4.35;;;6.10;99.90;;;;;;7376542;19;20027;-75
2023/01/30 07:10:06;;;;;;;23.95;4.60;;;6.10;99.90;;;;;;7374981;19;20062;-71
2023/01/30 07:12:33;;;;;;;22.08;4.95;;;6.10;99.90;;;;;;7373791;19;20018;-85
2023/01/30 07:15:00;;;;;;;24.13;5.10;;;6.10;99.90;;;;;;7372168;19;20011;-87
2023/01/30 07:17:26;;;;;;;27.60;4.00;;;6.00;99.90;;;;;;7373598;19;20045;-78
2023/01/30 07:19:52;;;;;;;21.33;4.85;;;6.00;99.90;;;;;;7375868;19;20049;-78
2023/01/30 07:22:19;;;;;;;24.35;5.55;;;6.00;99.90;;;;;;7370656;19;20057;-79
2023/01/30 07:24:46;;;;;;;25.35;5.00;;;6.10;99.90;;;;;;7368912;19;20014;-80
2023/01/30 07:27:13;;;;;;;22.10;4.57;;;6.10;99.90;;;;;;7372519;19;20019;-79
2023/01/30 07:29:43;;;;;;;28.73;4.60;;;6.10;99.90;;;;;;7377968;19;20018;-73
2023/01/30 07:32:15;;;;;;;24.42;4.65;;;6.10;99.90;;;;;;7373500;19;20457;-73
2023/01/30 07:34:41;;;;;;;27.33;4.38;;;6.10;99.90;;;;;;7374654;19;20015;-77
2023/01/30 07:37:08;;;;;;;23.35;4.43;;;6.10;99.90;;;;;;7373286;19;20023;-74
2023/01/30 07:39:35;;;;;;;25.75;4.70;;;6.10;99.90;;;;;;7373407;19;20036;-74
2023/01/30 07:42:02;;;;;;;27.95;5.35;;;6.10;99.90;;;;;;7371156;19;20419;-74
2023/01/30 07:44:28;;;;;;;24.88;5.13;;;6.10;99.90;;;;;;7371516;19;20019;-74
2023/01/30 07:46:54;;;;;;;25.88;6.70;;;6.20;99.90;;;;;;7372921;19;20018;-76
2023/01/30 07:49:21;;;;;;;26.02;5.07;;;6.10;99.90;;;;;;7370011;19;20596;-84
2023/01/30 07:51:48;;;;;;;24.90;5.13;;;6.20;99.90;;;;;;7371389;19;20014;-81
2023/01/30 07:54:15;;;;;;;23.63;4.75;;;6.20;99.90;;;;;;7373202;19;20015;-73
2023/01/30 07:56:41;;;;;;;27.33;5.70;;;6.30;99.90;;;;;;7372233;19;20916;-74
2023/01/30 07:59:10;;;;;;;27.50;4.75;;;6.40;99.90;;;;;;7369386;19;20018;-77
2023/01/30 08:01:37;;;;;;;20.48;4.60;;;6.40;99.90;;;;;;7365206;19;20600;-74
2023/01/30 08:04:04;;;;;;;19.55;4.65;;;6.40;99.90;;;;;;7371801;19;20029;-76
2023/01/30 08:06:31;;;;;;;22.50;5.28;;;6.40;99.90;;;;;;7366584;19;20024;-74
2023/01/30 08:08:57;;;;;;;21.27;5.28;;;6.50;99.90;;;;;;7372797;19;20106;-74
2023/01/30 08:11:24;;;;;;;20.40;4.07;;;6.50;99.90;;;;;;7364802;19;20090;-83
2023/01/30 08:13:51;;;;;;;23.00;4.63;;;6.50;99.90;;;;;;7374250;19;20041;-79
2023/01/30 08:16:18;;;;;;;31.83;6.18;;;6.50;99.90;;;;;;7373124;19;21015;-85
2023/01/30 08:18:45;;;;;;;25.17;5.32;;;6.50;99.90;;;;;;7374350;19;20025;-81
2023/01/30 08:21:12;;;;;;;21.58;4.72;;;6.50;99.90;;;;;;7372021;19;20380;-81
2023/01/30 08:23:39;;;;;;;18.63;4.95;;;6.50;99.90;;;;;;7367927;19;20022;-80
2023/01/30 08:26:06;;;;;;;22.48;5.53;;;6.50;99.90;;;;;;7374081;19;20458;-79
2023/01/30 08:28:33;;;;;;;19.73;5.28;;;6.50;99.90;;;;;;7370268;19;20085;-80
2023/01/30 08:31:00;;;;;;;28.17;6.03;;;6.50;99.90;;;;;;7373121;19;20022;-79
2023/01/30 08:33:30;;;;;;;25.30;5.25;;;6.50;99.90;;;;;;7366651;19;20019;-79
2023/01/30 08:35:56;;;;;;;28.38;4.78;;;6.50;99.90;;;;;;7368603;19;20022;-81
2023/01/30 08:38:23;;;;;;;24.25;5.38;;;6.60;99.90;;;;;;7373517;19;20395;-79
2023/01/30 08:40:50;;;;;;;26.58;5.35;;;6.60;99.90;;;;;;7369106;19;20066;-80
2023/01/30 08:43:19;;;;;;;27.15;5.03;;;6.60;99.90;;;;;;7367143;19;20097;-81
2023/01/30 08:45:46;;;;;;;31.20;6.88;;;6.70;99.90;;;;;;7372327;19;20465;-88
2023/01/30 08:48:13;;;;;;;20.75;4.75;;;6.70;99.90;;;;;;7373948;19;20018;-82
2023/01/30 08:50:43;;;;;;;25.95;5.57;;;6.70;99.90;;;;;;7373313;19;20015;-88
2023/01/30 08:53:09;;;;;;;22.98;5.53;;;6.70;99.90;;;;;;7370096;19;20074;-78
2023/01/30 08:55:36;;;;;;;20.05;5.03;;;6.70;99.90;;;;;;7372095;19;20081;-83
2023/01/30 08:58:02;;;;;;;22.75;4.70;;;6.70;99.90;;;;;;7373874;19;20018;-80
2023/01/30 09:00:29;;;;;;;23.50;5.30;;;6.70;99.90;;;;;;7369500;19;20029;-80
2023/01/30 09:02:56;;;;;;;26.17;5.68;;;6.60;99.90;;;;;;7372677;19;20022;-82
2023/01/30 09:05:24;;;;;;;26.10;5.72;;;6.70;99.90;;;;;;7372442;19;20022;-82
2023/01/30 09:07:51;;;;;;;25.30;5.13;;;6.70;99.90;;;;;;7372313;19;20422;-81
2023/01/30 09:10:18;;;;;;;23.10;5.88;;;6.80;99.90;;;;;;7370578;19;20019;-79
2023/01/30 09:12:45;;;;;;;26.77;5.45;;;6.80;99.90;;;;;;7368796;19;20015;-81
2023/01/30 09:15:12;;;;;;;29.95;4.95;;;6.80;99.90;;;;;;7371177;19;20019;-81
2023/01/30 09:17:40;;;;;;;30.55;5.68;;;6.80;99.90;;;;;;7373320;19;20015;-83
2023/01/30 09:20:09;;;;;;;26.15;5.82;;;6.90;99.90;;;;;;7371071;19;20081;-80
2023/01/30 09:22:36;;;;;;;29.10;5.35;;;7.10;99.90;;;;;;7371490;19;20015;-78
2023/01/30 09:25:04;;;;;;;31.45;6.97;;;7.20;99.90;;;;;;7368556;19;20018;-78
2023/01/30 09:27:35;;;;;;;25.08;5.25;;;7.30;99.90;;;;;;7366477;19;20054;-81
